Burns, TN (37029)

8:52 PM CST on February 09, 2016 (GMT -0600)
Tidwell Weather Station-- Intersection Hwy 47 and Hwy 96, Burns/Dickson | | Change Station
CLOSE
Current Station
Personal Weather Station
Location: Burns, TN
Elevation: 783 ft
Nearby Weather Stations
Active Advisory: Winter Weather Advisory Active Notice: Local Storm Report

Elev 783 ft 36.05 °N, 87.30 °W | Updated 22 seconds ago

Overcast
Overcast
21.3 °F
Feels Like 14 °F
N
5.1
Wind Variable Wind from NW
Gusts 5.3 mph

Today
High -- | Low -- °F
--% Chance of Precip.
Yesterday
High -- | Low -- °F
Precip. -- in
Pressure 30.11 in
Visibility 4.0 miles
Clouds Mostly Cloudy 2000 ft
Mostly Cloudy 2500 ft
Overcast 4500 ft
Windchill 14 °F
Dew Point 12 °F
Humidity 68%
Rainfall in
Snow Depth Not available.
6:43 AM 5:23 PM
Waxing Crescent, 3% visible
METAR KBNA 100153Z 31006KT 4SM -SN BKN020 BKN025 OVC045 M05/M09 A3009 RMK AO2 SLP194 P0000 T10501094
Pressure 30.11 in
Visibility 4.0 miles
Clouds Mostly Cloudy 2000 ft
Mostly Cloudy 2500 ft
Overcast 4500 ft
Windchill 14 °F
Dew Point 12 °F
Humidity 68%
Rainfall in
Snow Depth Not available.
6:43 AM 5:23 PM
Waxing Crescent, 3% visible
METAR KBNA 100153Z 31006KT 4SM -SN BKN020 BKN025 OVC045 M05/M09 A3009 RMK AO2 SLP194 P0000 T10501094

10-Day Weather Forecast

Almanac

Astronomy

Feb. 09, 2016 Rise Set
Actual Time
Civil Twilight
Nautical Twilight
Astronomical Twilight
Moon
Length of Visible Light
Length of Day
Tomorrow will be .
, % of the Moon is Illuminated

Today's Extremes

State Highs State Lows

Community

WunderPhotos

Upload Photos

1,891,786 photos uploaded!

WunderBlog® & News

Nearby

Air Quality

  Air Quality AQ Index Pollutant
Not available.

Snow Depth

Station Depth Elevation

Earthquake Activity

City Distance Mag. Time & Date
Minimum magnitude displayed is 2.5.

Coastal Water Temperatures

Place Temperature

Stations

Nearby Weather Stations

Station Location Temp. Windchill Dew Point Humidity Wind Precip. Elev Updated Type
                   

Watches & Warnings

Winter Weather Advisory
Issued: 5:31 PM CST Feb. 9, 2016 – National Weather Service

... Winter Weather Advisory now in effect until 6 am CST
Wednesday...

* timing... until 6 am CST Wednesday morning.

* Main impact... hazardous travel conditions across the area due
to snowfall as well as patchy ice on roadways.

* Total snow accumulations... 1 to 3 inches with locally higher
amounts.

Precautionary/preparedness actions...

A Winter Weather Advisory for snow means that periods of snow
will cause primarily travel difficulties. Be prepared for snow
covered roads and limited visibilities... and use caution while
driving.